sensor_id;sensor_type;location;lat;lon;timestamp;pressure;altitude;pressure_sealevel;temperature;humidity
6435;BME280;3250;42.694;23.278;2023-01-29T00:01:24;94927.66;;;1.97;84.65
6435;BME280;3250;42.694;23.278;2023-01-29T00:03:50;94938.56;;;2.09;84.62
6435;BME280;3250;42.694;23.278;2023-01-29T00:06:16;94936.16;;;2.15;84.31
6435;BME280;3250;42.694;23.278;2023-01-29T00:08:42;94940.53;;;2.15;84.13
6435;BME280;3250;42.694;23.278;2023-01-29T00:11:08;94940.06;;;2.19;84.43
6435;BME280;3250;42.694;23.278;2023-01-29T00:13:34;94942.00;;;2.17;84.48
6435;BME280;3250;42.694;23.278;2023-01-29T00:16:00;94941.19;;;2.17;84.45
6435;BME280;3250;42.694;23.278;2023-01-29T00:18:27;94949.16;;;2.15;84.23
6435;BME280;3250;42.694;23.278;2023-01-29T00:20:53;94950.56;;;2.10;85.04
6435;BME280;3250;42.694;23.278;2023-01-29T00:23:19;94953.03;;;2.11;84.92
6435;BME280;3250;42.694;23.278;2023-01-29T00:25:44;94949.59;;;2.11;85.10
6435;BME280;3250;42.694;23.278;2023-01-29T00:28:11;94935.94;;;2.01;84.93
6435;BME280;3250;42.694;23.278;2023-01-29T00:30:37;94951.06;;;2.05;85.28
6435;BME280;3250;42.694;23.278;2023-01-29T00:33:03;94942.75;;;2.02;85.16
6435;BME280;3250;42.694;23.278;2023-01-29T00:35:30;94943.72;;;2.01;85.20
6435;BME280;3250;42.694;23.278;2023-01-29T00:37:55;94953.97;;;2.10;85.23
6435;BME280;3250;42.694;23.278;2023-01-29T00:40:21;94957.09;;;2.14;85.80
6435;BME280;3250;42.694;23.278;2023-01-29T00:42:47;94961.13;;;2.16;85.07
6435;BME280;3250;42.694;23.278;2023-01-29T00:45:32;94956.72;;;2.09;85.18
6435;BME280;3250;42.694;23.278;2023-01-29T00:47:57;94958.00;;;1.97;85.86
6435;BME280;3250;42.694;23.278;2023-01-29T00:50:23;94947.47;;;1.98;86.15
6435;BME280;3250;42.694;23.278;2023-01-29T00:52:48;94956.91;;;2.07;86.06
6435;BME280;3250;42.694;23.278;2023-01-29T00:55:16;94964.72;;;2.15;85.58
6435;BME280;3250;42.694;23.278;2023-01-29T00:57:41;94953.19;;;2.18;85.62
6435;BME280;3250;42.694;23.278;2023-01-29T01:00:10;94958.91;;;2.21;85.79
6435;BME280;3250;42.694;23.278;2023-01-29T01:02:35;94958.91;;;2.21;85.43
6435;BME280;3250;42.694;23.278;2023-01-29T01:05:20;94949.31;;;2.22;85.61
6435;BME280;3250;42.694;23.278;2023-01-29T01:07:50;94954.69;;;2.28;85.28
6435;BME280;3250;42.694;23.278;2023-01-29T01:10:25;94960.41;;;2.32;84.99
6435;BME280;3250;42.694;23.278;2023-01-29T01:13:02;94957.41;;;2.19;84.80
6435;BME280;3250;42.694;23.278;2023-01-29T01:15:29;94951.75;;;2.15;85.21
6435;BME280;3250;42.694;23.278;2023-01-29T01:17:57;94951.72;;;2.07;84.97
6435;BME280;3250;42.694;23.278;2023-01-29T01:20:24;94953.84;;;2.12;85.34
6435;BME280;3250;42.694;23.278;2023-01-29T01:22:52;94947.31;;;2.08;84.92
6435;BME280;3250;42.694;23.278;2023-01-29T01:25:18;94950.28;;;2.13;85.33
6435;BME280;3250;42.694;23.278;2023-01-29T01:27:43;94949.75;;;2.09;85.05
6435;BME280;3250;42.694;23.278;2023-01-29T01:30:14;94944.72;;;2.08;85.23
6435;BME280;3250;42.694;23.278;2023-01-29T01:32:40;94938.53;;;2.01;85.92
6435;BME280;3250;42.694;23.278;2023-01-29T01:35:06;94956.84;;;1.99;86.24
6435;BME280;3250;42.694;23.278;2023-01-29T01:37:32;94952.16;;;2.03;85.86
6435;BME280;3250;42.694;23.278;2023-01-29T01:39:58;94943.97;;;2.15;85.41
6435;BME280;3250;42.694;23.278;2023-01-29T01:42:28;94954.50;;;2.14;85.05
6435;BME280;3250;42.694;23.278;2023-01-29T01:45:01;94947.19;;;2.17;85.13
6435;BME280;3250;42.694;23.278;2023-01-29T01:47:52;94950.16;;;2.22;84.92
6435;BME280;3250;42.694;23.278;2023-01-29T01:52:52;94955.22;;;2.32;84.18
6435;BME280;3250;42.694;23.278;2023-01-29T01:55:23;94959.88;;;2.20;84.27
6435;BME280;3250;42.694;23.278;2023-01-29T01:57:58;94962.78;;;2.25;84.79
6435;BME280;3250;42.694;23.278;2023-01-29T02:00:26;94959.88;;;2.20;85.06
6435;BME280;3250;42.694;23.278;2023-01-29T02:02:52;94961.78;;;2.18;85.69
6435;BME280;3250;42.694;23.278;2023-01-29T02:05:38;94957.91;;;2.14;85.67
6435;BME280;3250;42.694;23.278;2023-01-29T02:08:29;94966.81;;;2.12;85.82
6435;BME280;3250;42.694;23.278;2023-01-29T02:11:14;94964.03;;;2.05;86.05
6435;BME280;3250;42.694;23.278;2023-01-29T02:13:42;94964.22;;;2.12;86.63
6435;BME280;3250;42.694;23.278;2023-01-29T02:16:07;94958.22;;;2.11;86.41
6435;BME280;3250;42.694;23.278;2023-01-29T02:18:33;94963.09;;;2.14;86.07
6435;BME280;3250;42.694;23.278;2023-01-29T02:21:31;94963.06;;;2.06;86.19
6435;BME280;3250;42.694;23.278;2023-01-29T02:27:11;94968.00;;;1.92;86.72
6435;BME280;3250;42.694;23.278;2023-01-29T02:38:14;94983.47;;;2.01;87.31
6435;BME280;3250;42.694;23.278;2023-01-29T02:41:01;94979.34;;;1.90;87.64
6435;BME280;3250;42.694;23.278;2023-01-29T02:46:26;94973.19;;;1.92;87.25
6435;BME280;3250;42.694;23.278;2023-01-29T02:51:49;94977.47;;;2.01;87.69
6435;BME280;3250;42.694;23.278;2023-01-29T02:54:21;94980.72;;;2.03;87.04
6435;BME280;3250;42.694;23.278;2023-01-29T02:57:00;94989.13;;;1.97;87.39
6435;BME280;3250;42.694;23.278;2023-01-29T02:59:38;94981.69;;;2.02;87.26
6435;BME280;3250;42.694;23.278;2023-01-29T03:02:12;94976.13;;;1.88;87.85
6435;BME280;3250;42.694;23.278;2023-01-29T03:04:44;94979.06;;;1.94;87.67
6435;BME280;3250;42.694;23.278;2023-01-29T03:07:16;94981.22;;;1.98;88.28
6435;BME280;3250;42.694;23.278;2023-01-29T03:10:14;94982.81;;;1.99;87.60
6435;BME280;3250;42.694;23.278;2023-01-29T03:12:42;94979.91;;;2.02;87.65
6435;BME280;3250;42.694;23.278;2023-01-29T03:15:11;94983.63;;;2.00;88.06
6435;BME280;3250;42.694;23.278;2023-01-29T03:17:46;94984.66;;;2.07;88.03
6435;BME280;3250;42.694;23.278;2023-01-29T03:20:18;94983.97;;;2.05;88.25
6435;BME280;3250;42.694;23.278;2023-01-29T03:22:51;94984.25;;;1.94;87.93
6435;BME280;3250;42.694;23.278;2023-01-29T03:25:20;94988.13;;;1.89;88.03
6435;BME280;3250;42.694;23.278;2023-01-29T03:28:06;94994.28;;;1.88;89.02
6435;BME280;3250;42.694;23.278;2023-01-29T03:30:54;94994.06;;;1.82;88.31
6435;BME280;3250;42.694;23.278;2023-01-29T03:33:51;94987.78;;;1.84;88.26
6435;BME280;3250;42.694;23.278;2023-01-29T03:36:36;94989.13;;;1.97;88.13
6435;BME280;3250;42.694;23.278;2023-01-29T03:39:05;94990.19;;;2.12;86.71
6435;BME280;3250;42.694;23.278;2023-01-29T03:41:34;94994.69;;;2.10;86.59
6435;BME280;3250;42.694;23.278;2023-01-29T03:47:13;94993.59;;;2.12;86.21
6435;BME280;3250;42.694;23.278;2023-01-29T03:52:49;94987.84;;;2.01;87.00
6435;BME280;3250;42.694;23.278;2023-01-29T03:55:32;94988.25;;;1.80;87.06
6435;BME280;3250;42.694;23.278;2023-01-29T03:58:04;94997.53;;;1.90;87.60
6435;BME280;3250;42.694;23.278;2023-01-29T04:00:47;94987.78;;;1.84;86.94
6435;BME280;3250;42.694;23.278;2023-01-29T04:03:17;94989.59;;;1.92;87.35
6435;BME280;3250;42.694;23.278;2023-01-29T04:05:55;94981.53;;;2.03;87.23
6435;BME280;3250;42.694;23.278;2023-01-29T04:08:37;94986.22;;;2.00;87.15
6435;BME280;3250;42.694;23.278;2023-01-29T04:11:09;94991.78;;;2.05;86.91
6435;BME280;3250;42.694;23.278;2023-01-29T04:13:36;94990.44;;;2.01;86.88
6435;BME280;3250;42.694;23.278;2023-01-29T04:16:05;95002.50;;;2.10;86.82
6435;BME280;3250;42.694;23.278;2023-01-29T04:18:33;95005.59;;;2.13;87.12
6435;BME280;3250;42.694;23.278;2023-01-29T04:20:59;95004.41;;;2.08;87.22
6435;BME280;3250;42.694;23.278;2023-01-29T04:23:26;95001.19;;;2.06;86.67
6435;BME280;3250;42.694;23.278;2023-01-29T04:28:27;95004.75;;;2.05;86.88
6435;BME280;3250;42.694;23.278;2023-01-29T04:30:59;94996.47;;;2.09;86.75
6435;BME280;3250;42.694;23.278;2023-01-29T04:39:03;95008.69;;;2.17;86.36
6435;BME280;3250;42.694;23.278;2023-01-29T04:41:34;95014.50;;;2.11;85.46
6435;BME280;3250;42.694;23.278;2023-01-29T04:44:14;95006.38;;;2.06;85.98
6435;BME280;3250;42.694;23.278;2023-01-29T04:49:44;95012.31;;;1.90;86.97
6435;BME280;3250;42.694;23.278;2023-01-29T04:52:20;95006.09;;;1.83;87.10
6435;BME280;3250;42.694;23.278;2023-01-29T04:55:02;95008.13;;;1.71;87.22
6435;BME280;3250;42.694;23.278;2023-01-29T05:00:00;95013.69;;;1.76;87.63
6435;BME280;3250;42.694;23.278;2023-01-29T05:02:27;95010.47;;;1.82;87.91
6435;BME280;3250;42.694;23.278;2023-01-29T05:04:54;95014.25;;;1.88;87.26
6435;BME280;3250;42.694;23.278;2023-01-29T05:07:21;95011.16;;;1.93;87.27
6435;BME280;3250;42.694;23.278;2023-01-29T05:09:48;95009.09;;;1.96;86.64
6435;BME280;3250;42.694;23.278;2023-01-29T05:12:15;95011.69;;;1.96;86.82
6435;BME280;3250;42.694;23.278;2023-01-29T05:14:43;95015.75;;;1.99;87.34
6435;BME280;3250;42.694;23.278;2023-01-29T05:17:14;95021.16;;;2.05;87.16
6435;BME280;3250;42.694;23.278;2023-01-29T05:19:40;95010.25;;;2.02;87.28
6435;BME280;3250;42.694;23.278;2023-01-29T05:22:08;95021.00;;;2.07;86.49
6435;BME280;3250;42.694;23.278;2023-01-29T05:24:36;95025.19;;;2.08;86.05
6435;BME280;3250;42.694;23.278;2023-01-29T05:27:02;95028.94;;;2.05;86.17
6435;BME280;3250;42.694;23.278;2023-01-29T05:29:46;95026.63;;;2.02;86.21
6435;BME280;3250;42.694;23.278;2023-01-29T05:32:12;95030.84;;;2.03;86.43
6435;BME280;3250;42.694;23.278;2023-01-29T05:34:38;95030.34;;;2.00;86.05
6435;BME280;3250;42.694;23.278;2023-01-29T05:37:03;95035.38;;;2.01;86.28
6435;BME280;3250;42.694;23.278;2023-01-29T05:39:29;95035.72;;;1.98;86.27
6435;BME280;3250;42.694;23.278;2023-01-29T05:41:54;95035.50;;;1.92;86.87
6435;BME280;3250;42.694;23.278;2023-01-29T05:44:20;95034.81;;;1.81;87.19
6435;BME280;3250;42.694;23.278;2023-01-29T05:46:45;95038.63;;;1.51;88.20
6435;BME280;3250;42.694;23.278;2023-01-29T05:49:11;95035.66;;;1.64;88.16
6435;BME280;3250;42.694;23.278;2023-01-29T05:51:37;95038.81;;;1.76;88.42
6435;BME280;3250;42.694;23.278;2023-01-29T05:54:03;95047.16;;;1.87;87.92
6435;BME280;3250;42.694;23.278;2023-01-29T05:56:28;95037.59;;;1.88;87.47
6435;BME280;3250;42.694;23.278;2023-01-29T05:58:54;95048.50;;;2.00;87.92
6435;BME280;3250;42.694;23.278;2023-01-29T06:01:23;95046.38;;;1.95;87.15
6435;BME280;3250;42.694;23.278;2023-01-29T06:03:49;95050.91;;;1.93;87.42
6435;BME280;3250;42.694;23.278;2023-01-29T06:06:15;95049.13;;;1.94;87.42
6435;BME280;3250;42.694;23.278;2023-01-29T06:08:41;95050.09;;;1.93;87.65
6435;BME280;3250;42.694;23.278;2023-01-29T06:11:08;95049.13;;;1.94;87.49
6435;BME280;3250;42.694;23.278;2023-01-29T06:13:33;95058.22;;;1.89;87.79
6435;BME280;3250;42.694;23.278;2023-01-29T06:15:59;95064.72;;;1.94;87.78
6435;BME280;3250;42.694;23.278;2023-01-29T06:18:24;95072.69;;;2.00;87.80
6435;BME280;3250;42.694;23.278;2023-01-29T06:20:50;95066.91;;;2.06;87.10
6435;BME280;3250;42.694;23.278;2023-01-29T06:23:15;95076.47;;;2.06;87.17
6435;BME280;3250;42.694;23.278;2023-01-29T06:25:40;95079.72;;;2.08;87.85
6435;BME280;3250;42.694;23.278;2023-01-29T06:28:06;95078.41;;;2.04;87.22
6435;BME280;3250;42.694;23.278;2023-01-29T06:30:31;95083.03;;;1.92;87.51
6435;BME280;3250;42.694;23.278;2023-01-29T06:32:57;95087.78;;;1.97;87.86
6435;BME280;3250;42.694;23.278;2023-01-29T06:35:24;95092.28;;;1.95;88.24
6435;BME280;3250;42.694;23.278;2023-01-29T06:37:50;95090.03;;;2.00;87.81
6435;BME280;3250;42.694;23.278;2023-01-29T06:40:15;95098.22;;;2.05;87.20
6435;BME280;3250;42.694;23.278;2023-01-29T06:42:41;95098.41;;;2.11;87.81
6435;BME280;3250;42.694;23.278;2023-01-29T06:45:06;95091.44;;;2.12;87.44
6435;BME280;3250;42.694;23.278;2023-01-29T06:47:32;95080.69;;;2.07;88.11
6435;BME280;3250;42.694;23.278;2023-01-29T06:49:57;95095.56;;;2.22;88.13
6435;BME280;3250;42.694;23.278;2023-01-29T06:52:23;95090.00;;;2.17;87.89
6435;BME280;3250;42.694;23.278;2023-01-29T06:54:53;95103.53;;;2.29;87.44
6435;BME280;3250;42.694;23.278;2023-01-29T06:57:18;95096.72;;;2.28;86.87
6435;BME280;3250;42.694;23.278;2023-01-29T06:59:44;95105.50;;;2.35;86.85
6435;BME280;3250;42.694;23.278;2023-01-29T07:02:09;95103.28;;;2.40;86.59
6435;BME280;3250;42.694;23.278;2023-01-29T07:04:35;95106.66;;;2.33;86.65
6435;BME280;3250;42.694;23.278;2023-01-29T07:07:02;95113.16;;;2.37;87.05
6435;BME280;3250;42.694;23.278;2023-01-29T07:09:27;95121.31;;;2.42;87.16
6435;BME280;3250;42.694;23.278;2023-01-29T07:11:54;95120.97;;;2.45;87.10
6435;BME280;3250;42.694;23.278;2023-01-29T07:14:19;95114.16;;;2.44;86.56
6435;BME280;3250;42.694;23.278;2023-01-29T07:16:45;95125.06;;;2.47;86.47
6435;BME280;3250;42.694;23.278;2023-01-29T07:19:10;95130.56;;;2.44;86.66
6435;BME280;3250;42.694;23.278;2023-01-29T07:21:36;95134.13;;;2.43;86.94
6435;BME280;3250;42.694;23.278;2023-01-29T07:24:01;95134.13;;;2.43;86.65
6435;BME280;3250;42.694;23.278;2023-01-29T07:26:27;95134.16;;;2.51;86.22
6435;BME280;3250;42.694;23.278;2023-01-29T07:28:52;95134.63;;;2.47;86.31
6435;BME280;3250;42.694;23.278;2023-01-29T07:31:18;95135.78;;;2.52;86.15
6435;BME280;3250;42.694;23.278;2023-01-29T07:33:43;95135.78;;;2.52;85.79
6435;BME280;3250;42.694;23.278;2023-01-29T07:36:10;95136.94;;;2.50;85.95
6435;BME280;3250;42.694;23.278;2023-01-29T07:38:35;95139.28;;;2.35;86.15
6435;BME280;3250;42.694;23.278;2023-01-29T07:41:01;95144.03;;;2.40;86.24
6435;BME280;3250;42.694;23.278;2023-01-29T07:43:26;95137.09;;;2.48;86.13
6435;BME280;3250;42.694;23.278;2023-01-29T07:45:52;95139.16;;;2.45;86.89
6435;BME280;3250;42.694;23.278;2023-01-29T07:48:17;95150.41;;;2.53;86.59
6435;BME280;3250;42.694;23.278;2023-01-29T07:50:43;95139.56;;;2.58;86.41
6435;BME280;3250;42.694;23.278;2023-01-29T07:53:13;95144.44;;;2.61;86.16
6435;BME280;3250;42.694;23.278;2023-01-29T07:55:39;95146.25;;;2.69;86.01
6435;BME280;3250;42.694;23.278;2023-01-29T07:58:05;95143.06;;;2.75;85.25
6435;BME280;3250;42.694;23.278;2023-01-29T08:00:31;95151.19;;;2.80;85.00
6435;BME280;3250;42.694;23.278;2023-01-29T08:03:10;95153.78;;;2.80;84.66
6435;BME280;3250;42.694;23.278;2023-01-29T08:05:36;95155.75;;;2.86;84.43
6435;BME280;3250;42.694;23.278;2023-01-29T08:08:01;95162.94;;;2.84;84.63
6435;BME280;3250;42.694;23.278;2023-01-29T08:10:28;95157.06;;;2.82;84.46
6435;BME280;3250;42.694;23.278;2023-01-29T08:12:58;95156.91;;;2.83;84.33
6435;BME280;3250;42.694;23.278;2023-01-29T08:15:24;95161.44;;;2.81;83.86
6435;BME280;3250;42.694;23.278;2023-01-29T08:17:51;95158.84;;;2.81;83.85
6435;BME280;3250;42.694;23.278;2023-01-29T08:20:17;95159.47;;;2.75;83.98
6435;BME280;3250;42.694;23.278;2023-01-29T08:22:43;95167.47;;;2.82;84.01
6435;BME280;3250;42.694;23.278;2023-01-29T08:25:09;95165.69;;;2.82;83.39
6435;BME280;3250;42.694;23.278;2023-01-29T08:27:34;95168.19;;;2.66;83.49
6435;BME280;3250;42.694;23.278;2023-01-29T08:30:00;95163.16;;;2.64;84.14
6435;BME280;3250;42.694;23.278;2023-01-29T08:32:25;95167.06;;;2.69;84.33
6435;BME280;3250;42.694;23.278;2023-01-29T08:34:51;95174.25;;;2.75;84.36
6435;BME280;3250;42.694;23.278;2023-01-29T08:37:16;95178.16;;;2.79;83.45
6435;BME280;3250;42.694;23.278;2023-01-29T08:39:42;95178.78;;;2.73;83.89
6435;BME280;3250;42.694;23.278;2023-01-29T08:42:07;95165.09;;;2.62;83.99
6435;BME280;3250;42.694;23.278;2023-01-29T08:44:33;95176.81;;;2.67;83.67
6435;BME280;3250;42.694;23.278;2023-01-29T08:46:58;95176.97;;;2.65;83.84
6435;BME280;3250;42.694;23.278;2023-01-29T08:49:23;95184.13;;;2.71;83.89
6435;BME280;3250;42.694;23.278;2023-01-29T08:51:49;95187.91;;;2.77;83.93
6435;BME280;3250;42.694;23.278;2023-01-29T08:54:16;95190.84;;;2.82;83.50
6435;BME280;3250;42.694;23.278;2023-01-29T08:56:41;95187.22;;;2.67;83.45
6435;BME280;3250;42.694;23.278;2023-01-29T08:59:09;95197.28;;;2.70;83.40
6435;BME280;3250;42.694;23.278;2023-01-29T09:01:34;95198.41;;;2.67;83.54
6435;BME280;3250;42.694;23.278;2023-01-29T09:04:00;95201.03;;;2.67;83.04
6435;BME280;3250;42.694;23.278;2023-01-29T09:06:25;95202.03;;;2.74;83.06
6435;BME280;3250;42.694;23.278;2023-01-29T09:08:51;95190.50;;;2.77;82.85
6435;BME280;3250;42.694;23.278;2023-01-29T09:11:16;95203.38;;;2.86;82.93
6435;BME280;3250;42.694;23.278;2023-01-29T09:13:42;95184.03;;;2.81;82.08
6435;BME280;3250;42.694;23.278;2023-01-29T09:16:08;95186.47;;;2.82;82.14
6435;BME280;3250;42.694;23.278;2023-01-29T09:18:33;95190.41;;;2.94;82.23
6435;BME280;3250;42.694;23.278;2023-01-29T09:20:59;95197.13;;;3.05;83.26
6435;BME280;3250;42.694;23.278;2023-01-29T09:23:26;95193.56;;;3.06;82.00
6435;BME280;3250;42.694;23.278;2023-01-29T09:25:51;95196.00;;;3.08;81.44
6435;BME280;3250;42.694;23.278;2023-01-29T09:28:16;95196.78;;;3.00;81.66
6435;BME280;3250;42.694;23.278;2023-01-29T09:30:42;95188.66;;;3.03;81.55
6435;BME280;3250;42.694;23.278;2023-01-29T09:33:08;95195.47;;;2.96;81.29
6435;BME280;3250;42.694;23.278;2023-01-29T09:35:33;95190.78;;;2.99;81.13
6435;BME280;3250;42.694;23.278;2023-01-29T09:37:59;95185.44;;;3.01;81.54
6435;BME280;3250;42.694;23.278;2023-01-29T09:40:33;95182.16;;;2.99;81.63
6435;BME280;3250;42.694;23.278;2023-01-29T09:43:04;95183.31;;;3.04;81.88
6435;BME280;3250;42.694;23.278;2023-01-29T09:45:31;95182.84;;;3.09;81.78
6435;BME280;3250;42.694;23.278;2023-01-29T09:48:01;95183.78;;;3.00;81.15
6435;BME280;3250;42.694;23.278;2023-01-29T09:53:25;95180.84;;;3.03;81.38
6435;BME280;3250;42.694;23.278;2023-01-29T09:56:03;95175.97;;;2.92;81.54
6435;BME280;3250;42.694;23.278;2023-01-29T09:58:33;95183.09;;;2.90;82.22
6435;BME280;3250;42.694;23.278;2023-01-29T10:01:23;95178.72;;;2.90;81.79
6435;BME280;3250;42.694;23.278;2023-01-29T10:25:38;95151.34;;;2.78;82.05
6435;BME280;3250;42.694;23.278;2023-01-29T10:28:20;95162.44;;;2.88;82.39
6435;BME280;3250;42.694;23.278;2023-01-29T10:30:50;95155.28;;;2.82;82.52
6435;BME280;3250;42.694;23.278;2023-01-29T10:36:06;95149.25;;;2.82;82.24
6435;BME280;3250;42.694;23.278;2023-01-29T10:38:47;95153.13;;;2.78;82.76
6435;BME280;3250;42.694;23.278;2023-01-29T10:47:29;95154.28;;;2.75;82.42
6435;BME280;3250;42.694;23.278;2023-01-29T10:57:58;95142.91;;;2.76;82.35
6435;BME280;3250;42.694;23.278;2023-01-29T11:00:35;95142.31;;;2.56;82.85
6435;BME280;3250;42.694;23.278;2023-01-29T11:03:26;95131.22;;;2.46;83.32
6435;BME280;3250;42.694;23.278;2023-01-29T11:08:37;95132.56;;;2.50;83.50
6435;BME280;3250;42.694;23.278;2023-01-29T11:11:17;95136.66;;;2.61;83.83
6435;BME280;3250;42.694;23.278;2023-01-29T11:14:01;95133.56;;;2.57;83.78
6435;BME280;3250;42.694;23.278;2023-01-29T11:16:46;95124.97;;;2.57;83.80
6435;BME280;3250;42.694;23.278;2023-01-29T11:19:13;95126.81;;;2.73;83.36
6435;BME280;3250;42.694;23.278;2023-01-29T11:21:58;95117.56;;;2.78;83.33
6435;BME280;3250;42.694;23.278;2023-01-29T11:24:26;95120.53;;;2.91;83.42
6435;BME280;3250;42.694;23.278;2023-01-29T11:26:53;95117.81;;;3.01;82.93
6435;BME280;3250;42.694;23.278;2023-01-29T11:29:40;95121.09;;;3.11;81.89
6435;BME280;3250;42.694;23.278;2023-01-29T11:32:11;95116.22;;;3.08;82.46
6435;BME280;3250;42.694;23.278;2023-01-29T11:35:02;95114.28;;;3.18;82.25
6435;BME280;3250;42.694;23.278;2023-01-29T11:37:39;95099.50;;;3.19;81.90
6435;BME280;3250;42.694;23.278;2023-01-29T11:42:44;95091.56;;;3.28;81.37
6435;BME280;3250;42.694;23.278;2023-01-29T11:47:53;95091.75;;;3.59;82.19
6435;BME280;3250;42.694;23.278;2023-01-29T11:50:23;95099.22;;;3.70;80.08
6435;BME280;3250;42.694;23.278;2023-01-29T11:52:50;95084.25;;;3.56;79.46
6435;BME280;3250;42.694;23.278;2023-01-29T11:55:35;95081.63;;;3.40;79.74
6435;BME280;3250;42.694;23.278;2023-01-29T11:58:15;95093.84;;;3.39;80.44
6435;BME280;3250;42.694;23.278;2023-01-29T12:00:45;95094.78;;;3.30;80.78
6435;BME280;3250;42.694;23.278;2023-01-29T12:05:55;95082.31;;;3.50;80.18
6435;BME280;3250;42.694;23.278;2023-01-29T12:08:22;95094.03;;;3.62;80.04
6435;BME280;3250;42.694;23.278;2023-01-29T12:10:49;95086.03;;;3.72;79.71
6435;BME280;3250;42.694;23.278;2023-01-29T12:15:41;95080.19;;;3.78;79.64
6435;BME280;3250;42.694;23.278;2023-01-29T12:18:15;95085.06;;;3.81;79.04
6435;BME280;3250;42.694;23.278;2023-01-29T12:23:30;95086.84;;;3.64;78.91
6435;BME280;3250;42.694;23.278;2023-01-29T12:26:12;95089.44;;;3.72;79.64
6435;BME280;3250;42.694;23.278;2023-01-29T12:29:20;95090.94;;;3.75;79.24
6435;BME280;3250;42.694;23.278;2023-01-29T12:32:02;95088.81;;;3.54;79.34
6435;BME280;3250;42.694;23.278;2023-01-29T12:34:56;95083.78;;;3.53;80.29
6435;BME280;3250;42.694;23.278;2023-01-29T12:37:47;95089.78;;;3.69;80.24
6435;BME280;3250;42.694;23.278;2023-01-29T12:40:17;95089.44;;;3.72;79.35
6435;BME280;3250;42.694;23.278;2023-01-29T12:42:52;95093.69;;;3.65;79.56
6435;BME280;3250;42.694;23.278;2023-01-29T12:45:22;95086.38;;;3.61;79.18
6435;BME280;3250;42.694;23.278;2023-01-29T12:47:52;95084.91;;;3.58;79.38
6435;BME280;3250;42.694;23.278;2023-01-29T12:50:23;95083.94;;;3.67;79.19
6435;BME280;3250;42.694;23.278;2023-01-29T12:56:09;95083.44;;;3.64;78.15
6435;BME280;3250;42.694;23.278;2023-01-29T12:58:43;95079.69;;;3.58;79.00
6435;BME280;3250;42.694;23.278;2023-01-29T13:01:16;95093.22;;;3.62;79.01
6435;BME280;3250;42.694;23.278;2023-01-29T13:03:52;95088.47;;;3.41;79.14
6435;BME280;3250;42.694;23.278;2023-01-29T13:06:33;95090.38;;;3.23;79.91
6435;BME280;3250;42.694;23.278;2023-01-29T13:09:03;95085.69;;;3.26;80.83
6435;BME280;3250;42.694;23.278;2023-01-29T13:11:38;95083.75;;;3.28;80.07
6435;BME280;3250;42.694;23.278;2023-01-29T13:14:12;95082.28;;;3.26;80.25
6435;BME280;3250;42.694;23.278;2023-01-29T13:16:44;95083.91;;;3.27;80.59
6435;BME280;3250;42.694;23.278;2023-01-29T13:19:25;95082.94;;;3.28;80.97
6435;BME280;3250;42.694;23.278;2023-01-29T13:21:53;95090.38;;;3.23;80.58
6435;BME280;3250;42.694;23.278;2023-01-29T13:24:22;95084.72;;;3.19;81.12
6435;BME280;3250;42.694;23.278;2023-01-29T13:26:48;95083.56;;;3.22;81.32
6435;BME280;3250;42.694;23.278;2023-01-29T13:29:26;95094.47;;;3.25;80.86
6435;BME280;3250;42.694;23.278;2023-01-29T13:31:54;95089.13;;;3.35;81.10
6435;BME280;3250;42.694;23.278;2023-01-29T13:34:26;95096.13;;;3.34;80.28
6435;BME280;3250;42.694;23.278;2023-01-29T13:36:55;95097.88;;;3.26;80.03
6435;BME280;3250;42.694;23.278;2023-01-29T13:39:31;95095.75;;;3.21;80.68
6435;BME280;3250;42.694;23.278;2023-01-29T13:41:59;95102.09;;;3.19;80.09
6435;BME280;3250;42.694;23.278;2023-01-29T13:44:38;95102.25;;;3.09;80.08
6435;BME280;3250;42.694;23.278;2023-01-29T13:47:09;95105.63;;;3.01;80.63
6435;BME280;3250;42.694;23.278;2023-01-29T13:49:51;95100.84;;;2.81;80.77
6435;BME280;3250;42.694;23.278;2023-01-29T13:52:38;95104.94;;;2.83;81.97
6435;BME280;3250;42.694;23.278;2023-01-29T13:55:30;95104.25;;;2.81;82.79
6435;BME280;3250;42.694;23.278;2023-01-29T13:58:01;95103.28;;;2.82;82.65
6435;BME280;3250;42.694;23.278;2023-01-29T14:07:59;95116.00;;;2.85;82.31
6435;BME280;3250;42.694;23.278;2023-01-29T14:10:27;95111.63;;;2.94;83.21
6435;BME280;3250;42.694;23.278;2023-01-29T14:12:54;95115.19;;;2.85;82.11
6435;BME280;3250;42.694;23.278;2023-01-29T14:15:45;95114.63;;;2.73;81.54
6435;BME280;3250;42.694;23.278;2023-01-29T14:18:33;95119.50;;;2.68;82.04
6435;BME280;3250;42.694;23.278;2023-01-29T14:21:03;95123.69;;;2.69;82.51
6435;BME280;3250;42.694;23.278;2023-01-29T14:26:26;95127.59;;;2.65;83.13
6435;BME280;3250;42.694;23.278;2023-01-29T14:28:58;95128.38;;;2.57;82.67
6435;BME280;3250;42.694;23.278;2023-01-29T14:34:24;95137.78;;;2.58;83.04
6435;BME280;3250;42.694;23.278;2023-01-29T14:36:54;95135.53;;;2.63;83.64
6435;BME280;3250;42.694;23.278;2023-01-29T14:39:46;95133.28;;;2.69;83.24
6435;BME280;3250;42.694;23.278;2023-01-29T14:42:20;95136.22;;;2.74;83.35
6435;BME280;3250;42.694;23.278;2023-01-29T14:44:55;95136.53;;;2.71;83.88
6435;BME280;3250;42.694;23.278;2023-01-29T14:49:50;95138.22;;;2.88;83.52
6435;BME280;3250;42.694;23.278;2023-01-29T14:52:17;95129.63;;;2.87;82.95
6435;BME280;3250;42.694;23.278;2023-01-29T14:54:46;95133.66;;;2.82;82.37
6435;BME280;3250;42.694;23.278;2023-01-29T14:57:15;95137.38;;;2.79;82.34
6435;BME280;3250;42.694;23.278;2023-01-29T14:59:58;95137.22;;;2.81;85.32
6435;BME280;3250;42.694;23.278;2023-01-29T15:02:27;95138.69;;;2.75;85.29
6435;BME280;3250;42.694;23.278;2023-01-29T15:05:02;95142.09;;;2.76;83.71
6435;BME280;3250;42.694;23.278;2023-01-29T15:07:33;95142.72;;;2.78;83.22
6435;BME280;3250;42.694;23.278;2023-01-29T15:10:13;95138.19;;;2.80;82.97
6435;BME280;3250;42.694;23.278;2023-01-29T15:15:35;95140.66;;;2.81;82.58
6435;BME280;3250;42.694;23.278;2023-01-29T15:18:08;95136.22;;;2.74;82.77
6435;BME280;3250;42.694;23.278;2023-01-29T15:20:39;95139.50;;;2.76;82.32
6435;BME280;3250;42.694;23.278;2023-01-29T15:23:40;95142.41;;;2.73;81.65
6435;BME280;3250;42.694;23.278;2023-01-29T15:26:09;95144.19;;;2.72;82.49
6435;BME280;3250;42.694;23.278;2023-01-29T15:28:37;95148.38;;;2.65;82.30
6435;BME280;3250;42.694;23.278;2023-01-29T15:31:11;95150.31;;;2.63;81.95
6435;BME280;3250;42.694;23.278;2023-01-29T15:33:41;95112.97;;;2.30;82.49
6435;BME280;3250;42.694;23.278;2023-01-29T15:36:16;95148.59;;;2.46;82.86
6435;BME280;3250;42.694;23.278;2023-01-29T15:38:43;95154.13;;;2.25;83.86
6435;BME280;3250;42.694;23.278;2023-01-29T15:41:19;95156.38;;;2.20;84.24